sensor_id;sensor_type;location;lat;lon;timestamp;pressure;altitude;pressure_sealevel;temperature;humidity
20622;BME280;10470;42.670;23.354;2023-04-07T00:01:42;94569.94;;;3.40;86.56
20622;BME280;10470;42.670;23.354;2023-04-07T00:04:08;94561.06;;;3.43;86.67
20622;BME280;10470;42.670;23.354;2023-04-07T00:06:33;94566.31;;;3.54;85.48
20622;BME280;10470;42.670;23.354;2023-04-07T00:08:59;94572.06;;;3.56;84.61
20622;BME280;10470;42.670;23.354;2023-04-07T00:11:25;94557.25;;;3.40;84.30
20622;BME280;10470;42.670;23.354;2023-04-07T00:13:50;94569.44;;;3.48;83.63
20622;BME280;10470;42.670;23.354;2023-04-07T00:16:16;94570.56;;;3.51;82.97
20622;BME280;10470;42.670;23.354;2023-04-07T00:18:42;94564.88;;;3.45;82.26
20622;BME280;10470;42.670;23.354;2023-04-07T00:21:07;94570.13;;;3.56;82.52
20622;BME280;10470;42.670;23.354;2023-04-07T00:23:33;94553.75;;;3.43;82.23
20622;BME280;10470;42.670;23.354;2023-04-07T00:25:58;94564.91;;;3.42;81.24
20622;BME280;10470;42.670;23.354;2023-04-07T00:28:23;94565.66;;;3.42;81.52
20622;BME280;10470;42.670;23.354;2023-04-07T00:30:49;94566.09;;;3.41;81.87
20622;BME280;10470;42.670;23.354;2023-04-07T00:33:14;94554.09;;;3.45;82.05
20622;BME280;10470;42.670;23.354;2023-04-07T00:35:40;94560.56;;;3.52;82.03
20622;BME280;10470;42.670;23.354;2023-04-07T00:38:05;94564.53;;;3.43;81.16
20622;BME280;10470;42.670;23.354;2023-04-07T00:40:31;94562.19;;;3.45;80.91
20622;BME280;10470;42.670;23.354;2023-04-07T00:42:56;94562.50;;;3.51;81.33
20622;BME280;10470;42.670;23.354;2023-04-07T00:45:22;94559.84;;;3.47;80.98
20622;BME280;10470;42.670;23.354;2023-04-07T00:47:47;94564.44;;;3.50;81.94
20622;BME280;10470;42.670;23.354;2023-04-07T00:50:13;94566.97;;;3.61;80.78
20622;BME280;10470;42.670;23.354;2023-04-07T00:52:38;94566.97;;;3.61;81.03
20622;BME280;10470;42.670;23.354;2023-04-07T00:55:05;94562.50;;;3.51;80.41
20622;BME280;10470;42.670;23.354;2023-04-07T00:57:30;94568.25;;;3.53;80.18
20622;BME280;10470;42.670;23.354;2023-04-07T00:59:56;94544.25;;;3.35;80.55
20622;BME280;10470;42.670;23.354;2023-04-07T01:02:35;94564.22;;;3.38;80.81
20622;BME280;10470;42.670;23.354;2023-04-07T01:05:23;94566.78;;;3.45;80.39
20622;BME280;10470;42.670;23.354;2023-04-07T01:08:11;94547.59;;;3.43;80.81
20622;BME280;10470;42.670;23.354;2023-04-07T01:13:37;94548.75;;;3.42;82.05
20622;BME280;10470;42.670;23.354;2023-04-07T01:16:10;94541.97;;;3.03;100.00
20622;BME280;10470;42.670;23.354;2023-04-07T01:18:38;94558.63;;;2.94;100.00
20622;BME280;10470;42.670;23.354;2023-04-07T01:21:13;94548.03;;;2.80;100.00
20622;BME280;10470;42.670;23.354;2023-04-07T01:26:30;94540.88;;;2.66;100.00
20622;BME280;10470;42.670;23.354;2023-04-07T01:31:53;94538.00;;;2.50;100.00
20622;BME280;10470;42.670;23.354;2023-04-07T01:34:20;94535.03;;;2.40;100.00
20622;BME280;10470;42.670;23.354;2023-04-07T01:36:48;94535.13;;;2.30;100.00
20622;BME280;10470;42.670;23.354;2023-04-07T01:39:15;94533.56;;;2.32;100.00
20622;BME280;10470;42.670;23.354;2023-04-07T01:41:42;94532.75;;;2.39;100.00
20622;BME280;10470;42.670;23.354;2023-04-07T01:44:09;94540.91;;;2.28;100.00
20622;BME280;10470;42.670;23.354;2023-04-07T01:46:35;94523.84;;;2.04;100.00
20622;BME280;10470;42.670;23.354;2023-04-07T01:49:00;94522.19;;;2.17;100.00
20622;BME280;10470;42.670;23.354;2023-04-07T01:51:27;94522.56;;;2.19;100.00
20622;BME280;10470;42.670;23.354;2023-04-07T01:53:55;94527.03;;;1.95;100.00
20622;BME280;10470;42.670;23.354;2023-04-07T01:56:21;94536.16;;;2.02;100.00
20622;BME280;10470;42.670;23.354;2023-04-07T01:58:46;94526.13;;;2.09;100.00
20622;BME280;10470;42.670;23.354;2023-04-07T02:01:13;94528.25;;;2.25;100.00
20622;BME280;10470;42.670;23.354;2023-04-07T02:03:50;94518.38;;;2.18;100.00
20622;BME280;10470;42.670;23.354;2023-04-07T02:06:19;94512.94;;;2.22;100.00
20622;BME280;10470;42.670;23.354;2023-04-07T02:08:50;94513.25;;;2.31;100.00
20622;BME280;10470;42.670;23.354;2023-04-07T02:11:19;94520.88;;;2.33;100.00
20622;BME280;10470;42.670;23.354;2023-04-07T02:13:46;94525.19;;;2.27;100.00
20622;BME280;10470;42.670;23.354;2023-04-07T02:16:12;94518.19;;;2.33;100.00
20622;BME280;10470;42.670;23.354;2023-04-07T02:18:38;94520.19;;;2.29;100.00
20622;BME280;10470;42.670;23.354;2023-04-07T02:21:06;94517.06;;;2.34;100.00
20622;BME280;10470;42.670;23.354;2023-04-07T02:23:34;94515.84;;;2.38;100.00
20622;BME280;10470;42.670;23.354;2023-04-07T02:26:00;94517.06;;;2.30;100.00
20622;BME280;10470;42.670;23.354;2023-04-07T02:28:25;94518.44;;;2.46;100.00
20622;BME280;10470;42.670;23.354;2023-04-07T02:30:51;94513.06;;;2.46;100.00
20622;BME280;10470;42.670;23.354;2023-04-07T02:33:16;94524.31;;;2.37;100.00
20622;BME280;10470;42.670;23.354;2023-04-07T02:35:42;94525.13;;;2.34;100.00
20622;BME280;10470;42.670;23.354;2023-04-07T02:38:07;94520.09;;;2.36;100.00
20622;BME280;10470;42.670;23.354;2023-04-07T02:40:32;94522.63;;;2.50;100.00
20622;BME280;10470;42.670;23.354;2023-04-07T02:42:58;94528.44;;;2.45;100.00
20622;BME280;10470;42.670;23.354;2023-04-07T02:45:23;94525.81;;;2.38;100.00
20622;BME280;10470;42.670;23.354;2023-04-07T02:47:49;94520.69;;;2.51;100.00
20622;BME280;10470;42.670;23.354;2023-04-07T02:50:14;94520.00;;;2.43;100.00
20622;BME280;10470;42.670;23.354;2023-04-07T02:52:40;94524.19;;;2.48;100.00
20622;BME280;10470;42.670;23.354;2023-04-07T02:55:05;94534.13;;;2.54;100.00
20622;BME280;10470;42.670;23.354;2023-04-07T02:57:31;94531.50;;;2.47;100.00
20622;BME280;10470;42.670;23.354;2023-04-07T02:59:56;94530.25;;;2.55;100.00
20622;BME280;10470;42.670;23.354;2023-04-07T03:02:23;94529.75;;;2.68;100.00
20622;BME280;10470;42.670;23.354;2023-04-07T03:04:50;94535.56;;;2.62;100.00
20622;BME280;10470;42.670;23.354;2023-04-07T03:07:16;94530.38;;;2.79;100.00
20622;BME280;10470;42.670;23.354;2023-04-07T03:09:42;94540.88;;;2.66;100.00
20622;BME280;10470;42.670;23.354;2023-04-07T03:12:07;94537.06;;;2.63;100.00
20622;BME280;10470;42.670;23.354;2023-04-07T03:14:32;94535.75;;;2.79;100.00
20622;BME280;10470;42.670;23.354;2023-04-07T03:16:58;94529.16;;;2.83;100.00
20622;BME280;10470;42.670;23.354;2023-04-07T03:19:23;94529.81;;;2.60;100.00
20622;BME280;10470;42.670;23.354;2023-04-07T03:21:49;94528.75;;;2.85;100.00
20622;BME280;10470;42.670;23.354;2023-04-07T03:24:14;94533.63;;;2.63;100.00
20622;BME280;10470;42.670;23.354;2023-04-07T03:26:40;94529.53;;;2.86;100.00
20622;BME280;10470;42.670;23.354;2023-04-07T03:29:06;94522.28;;;2.79;100.00
20622;BME280;10470;42.670;23.354;2023-04-07T03:31:31;94523.06;;;2.79;100.00
20622;BME280;10470;42.670;23.354;2023-04-07T03:33:56;94525.03;;;2.75;100.00
20622;BME280;10470;42.670;23.354;2023-04-07T03:36:22;94515.41;;;2.78;100.00
20622;BME280;10470;42.670;23.354;2023-04-07T03:38:49;94517.13;;;2.92;100.00
20622;BME280;10470;42.670;23.354;2023-04-07T03:41:14;94528.97;;;2.98;100.00
20622;BME280;10470;42.670;23.354;2023-04-07T03:43:40;94521.16;;;3.07;100.00
20622;BME280;10470;42.670;23.354;2023-04-07T03:46:06;94531.84;;;3.14;100.00
20622;BME280;10470;42.670;23.354;2023-04-07T03:48:31;94531.69;;;3.25;100.00
20622;BME280;10470;42.670;23.354;2023-04-07T03:50:58;94536.56;;;3.34;100.00
20622;BME280;10470;42.670;23.354;2023-04-07T03:53:23;94540.28;;;3.43;98.40
20622;BME280;10470;42.670;23.354;2023-04-07T03:55:49;94536.47;;;3.41;97.11
20622;BME280;10470;42.670;23.354;2023-04-07T03:58:15;94545.13;;;3.56;96.22
20622;BME280;10470;42.670;23.354;2023-04-07T04:00:41;94547.38;;;3.57;94.15
20622;BME280;10470;42.670;23.354;2023-04-07T04:03:07;94552.75;;;3.61;93.21
20622;BME280;10470;42.670;23.354;2023-04-07T04:05:32;94546.72;;;3.49;92.32
20622;BME280;10470;42.670;23.354;2023-04-07T04:07:58;94550.25;;;3.46;100.00
20622;BME280;10470;42.670;23.354;2023-04-07T04:10:23;94553.59;;;3.27;100.00
20622;BME280;10470;42.670;23.354;2023-04-07T04:12:49;94555.66;;;3.16;100.00
20622;BME280;10470;42.670;23.354;2023-04-07T04:15:15;94548.78;;;3.11;100.00
20622;BME280;10470;42.670;23.354;2023-04-07T04:17:40;94554.88;;;2.88;100.00
20622;BME280;10470;42.670;23.354;2023-04-07T04:20:07;94543.38;;;2.50;100.00
20622;BME280;10470;42.670;23.354;2023-04-07T04:22:33;94553.44;;;2.42;100.00
20622;BME280;10470;42.670;23.354;2023-04-07T04:24:59;94558.06;;;2.76;100.00
20622;BME280;10470;42.670;23.354;2023-04-07T04:27:24;94556.94;;;2.73;100.00
20622;BME280;10470;42.670;23.354;2023-04-07T04:29:50;94557.75;;;2.70;100.00
20622;BME280;10470;42.670;23.354;2023-04-07T04:32:16;94563.47;;;2.76;100.00
20622;BME280;10470;42.670;23.354;2023-04-07T04:34:42;94566.28;;;2.65;100.00
20622;BME280;10470;42.670;23.354;2023-04-07T04:37:07;94556.19;;;2.73;100.00
20622;BME280;10470;42.670;23.354;2023-04-07T04:39:33;94565.09;;;2.66;100.00
20622;BME280;10470;42.670;23.354;2023-04-07T04:41:59;94563.84;;;2.74;100.00
20622;BME280;10470;42.670;23.354;2023-04-07T04:44:25;94573.03;;;2.77;100.00
20622;BME280;10470;42.670;23.354;2023-04-07T04:46:50;94551.19;;;2.71;100.00
20622;BME280;10470;42.670;23.354;2023-04-07T04:49:16;94572.56;;;2.86;100.00
20622;BME280;10470;42.670;23.354;2023-04-07T04:51:43;94576.03;;;2.82;100.00
20622;BME280;10470;42.670;23.354;2023-04-07T04:54:09;94573.31;;;2.86;100.00
20622;BME280;10470;42.670;23.354;2023-04-07T04:56:34;94573.59;;;2.95;100.00
20622;BME280;10470;42.670;23.354;2023-04-07T04:59:00;94587.03;;;2.95;100.00
20622;BME280;10470;42.670;23.354;2023-04-07T05:01:25;94590.16;;;2.94;100.00
20622;BME280;10470;42.670;23.354;2023-04-07T05:03:50;94588.47;;;3.03;100.00
20622;BME280;10470;42.670;23.354;2023-04-07T05:06:16;94583.78;;;3.11;100.00
20622;BME280;10470;42.670;23.354;2023-04-07T05:08:41;94582.47;;;3.23;100.00
20622;BME280;10470;42.670;23.354;2023-04-07T05:11:08;94601.63;;;3.28;100.00
20622;BME280;10470;42.670;23.354;2023-04-07T05:13:33;94590.94;;;3.25;100.00
20622;BME280;10470;42.670;23.354;2023-04-07T05:15:59;94596.75;;;3.20;100.00
20622;BME280;10470;42.670;23.354;2023-04-07T05:18:25;94604.84;;;3.20;100.00
20622;BME280;10470;42.670;23.354;2023-04-07T05:20:51;94594.69;;;3.31;100.00
20622;BME280;10470;42.670;23.354;2023-04-07T05:23:16;94594.97;;;3.40;100.00
20622;BME280;10470;42.670;23.354;2023-04-07T05:25:42;94599.91;;;3.45;100.00
20622;BME280;10470;42.670;23.354;2023-04-07T05:28:07;94605.63;;;3.75;100.00
20622;BME280;10470;42.670;23.354;2023-04-07T05:30:32;94602.19;;;3.74;100.00
20622;BME280;10470;42.670;23.354;2023-04-07T05:32:58;94598.97;;;3.83;100.00
20622;BME280;10470;42.670;23.354;2023-04-07T05:35:24;94612.09;;;3.81;100.00
20622;BME280;10470;42.670;23.354;2023-04-07T05:37:49;94610.13;;;3.81;100.00
20622;BME280;10470;42.670;23.354;2023-04-07T05:40:15;94603.75;;;3.71;100.00
20622;BME280;10470;42.670;23.354;2023-04-07T05:42:41;94611.16;;;3.91;100.00
20622;BME280;10470;42.670;23.354;2023-04-07T05:45:07;94609.88;;;3.99;100.00
20622;BME280;10470;42.670;23.354;2023-04-07T05:47:33;94606.13;;;3.93;100.00
20622;BME280;10470;42.670;23.354;2023-04-07T05:49:59;94603.97;;;4.08;100.00
20622;BME280;10470;42.670;23.354;2023-04-07T05:52:25;94609.97;;;4.19;100.00
20622;BME280;10470;42.670;23.354;2023-04-07T05:54:50;94610.34;;;4.18;100.00
20622;BME280;10470;42.670;23.354;2023-04-07T05:57:15;94605.28;;;4.23;100.00
20622;BME280;10470;42.670;23.354;2023-04-07T05:59:41;94612.59;;;4.23;100.00
20622;BME280;10470;42.670;23.354;2023-04-07T06:02:06;94620.69;;;4.23;100.00
20622;BME280;10470;42.670;23.354;2023-04-07T06:04:32;94608.94;;;4.09;100.00
20622;BME280;10470;42.670;23.354;2023-04-07T06:07:00;94615.47;;;4.35;100.00
20622;BME280;10470;42.670;23.354;2023-04-07T06:09:25;94617.66;;;4.44;100.00
20622;BME280;10470;42.670;23.354;2023-04-07T06:11:51;94609.38;;;4.55;100.00
20622;BME280;10470;42.670;23.354;2023-04-07T06:14:17;94599.88;;;4.67;100.00
20622;BME280;10470;42.670;23.354;2023-04-07T06:16:43;94600.94;;;4.73;100.00
20622;BME280;10470;42.670;23.354;2023-04-07T06:19:08;94608.44;;;5.05;100.00
20622;BME280;10470;42.670;23.354;2023-04-07T06:21:34;94609.34;;;4.98;100.00
20622;BME280;10470;42.670;23.354;2023-04-07T06:23:59;94621.03;;;5.12;100.00
20622;BME280;10470;42.670;23.354;2023-04-07T06:26:25;94623.44;;;5.46;100.00
20622;BME280;10470;42.670;23.354;2023-04-07T06:28:51;94618.00;;;5.30;100.00
20622;BME280;10470;42.670;23.354;2023-04-07T06:31:17;94615.22;;;5.33;100.00
20622;BME280;10470;42.670;23.354;2023-04-07T06:33:43;94619.97;;;5.45;100.00
20622;BME280;10470;42.670;23.354;2023-04-07T06:36:09;94616.81;;;5.31;100.00
20622;BME280;10470;42.670;23.354;2023-04-07T06:38:34;94614.63;;;5.42;100.00
20622;BME280;10470;42.670;23.354;2023-04-07T06:41:00;94610.72;;;5.63;100.00
20622;BME280;10470;42.670;23.354;2023-04-07T06:43:26;94611.69;;;5.73;100.00
20622;BME280;10470;42.670;23.354;2023-04-07T06:45:51;94616.47;;;5.65;100.00
20622;BME280;10470;42.670;23.354;2023-04-07T06:48:16;94606.81;;;5.84;98.62
20622;BME280;10470;42.670;23.354;2023-04-07T06:50:46;94628.56;;;5.60;98.82
20622;BME280;10470;42.670;23.354;2023-04-07T06:53:11;94611.41;;;6.03;98.13
20622;BME280;10470;42.670;23.354;2023-04-07T06:55:37;94615.31;;;6.02;93.47
20622;BME280;10470;42.670;23.354;2023-04-07T06:58:02;94626.41;;;5.88;93.35
20622;BME280;10470;42.670;23.354;2023-04-07T07:00:28;94616.09;;;5.83;93.10
20622;BME280;10470;42.670;23.354;2023-04-07T07:02:55;94620.09;;;6.27;93.31
20622;BME280;10470;42.670;23.354;2023-04-07T07:05:21;94626.63;;;6.30;87.50
20622;BME280;10470;42.670;23.354;2023-04-07T07:07:48;94630.16;;;6.27;86.47
20622;BME280;10470;42.670;23.354;2023-04-07T07:10:13;94632.28;;;6.52;84.83
20622;BME280;10470;42.670;23.354;2023-04-07T07:12:39;94624.81;;;6.56;84.19
20622;BME280;10470;42.670;23.354;2023-04-07T07:15:05;94638.34;;;6.56;85.29
20622;BME280;10470;42.670;23.354;2023-04-07T07:17:31;94627.91;;;6.42;85.93
20622;BME280;10470;42.670;23.354;2023-04-07T07:19:56;94637.78;;;6.32;76.55
20622;BME280;10470;42.670;23.354;2023-04-07T07:22:22;94648.75;;;6.74;69.84
20622;BME280;10470;42.670;23.354;2023-04-07T07:24:47;94633.94;;;7.08;66.16
20622;BME280;10470;42.670;23.354;2023-04-07T07:27:13;94640.44;;;6.81;63.58
20622;BME280;10470;42.670;23.354;2023-04-07T07:29:38;94656.63;;;6.68;61.70
20622;BME280;10470;42.670;23.354;2023-04-07T07:32:03;94668.72;;;6.64;61.51
20622;BME280;10470;42.670;23.354;2023-04-07T07:34:30;94652.81;;;6.66;60.57
20622;BME280;10470;42.670;23.354;2023-04-07T07:36:56;94649.25;;;6.69;60.27
20622;BME280;10470;42.670;23.354;2023-04-07T07:39:21;94655.25;;;6.93;59.67
20622;BME280;10470;42.670;23.354;2023-04-07T07:41:47;94651.22;;;7.14;59.37
20622;BME280;10470;42.670;23.354;2023-04-07T07:44:12;94652.66;;;6.73;59.78
20622;BME280;10470;42.670;23.354;2023-04-07T07:46:37;94653.78;;;6.59;59.03
20622;BME280;10470;42.670;23.354;2023-04-07T07:49:03;94659.13;;;6.92;59.23
20622;BME280;10470;42.670;23.354;2023-04-07T07:51:30;94661.88;;;7.05;58.95
20622;BME280;10470;42.670;23.354;2023-04-07T07:53:55;94659.38;;;7.27;58.43
20622;BME280;10470;42.670;23.354;2023-04-07T07:56:20;94680.19;;;7.30;58.01
20622;BME280;10470;42.670;23.354;2023-04-07T07:58:46;94653.34;;;7.06;57.57
20622;BME280;10470;42.670;23.354;2023-04-07T08:01:12;94650.03;;;7.70;57.10
20622;BME280;10470;42.670;23.354;2023-04-07T08:03:37;94664.56;;;7.63;57.00
20622;BME280;10470;42.670;23.354;2023-04-07T08:06:03;94662.72;;;7.73;56.30
20622;BME280;10470;42.670;23.354;2023-04-07T08:08:28;94662.38;;;7.45;56.48
20622;BME280;10470;42.670;23.354;2023-04-07T08:10:54;94663.41;;;7.77;56.59
20622;BME280;10470;42.670;23.354;2023-04-07T08:13:19;94674.72;;;6.88;56.34
20622;BME280;10470;42.670;23.354;2023-04-07T08:15:45;94672.72;;;7.05;56.29
20622;BME280;10470;42.670;23.354;2023-04-07T08:18:10;94668.91;;;7.02;56.68
20622;BME280;10470;42.670;23.354;2023-04-07T08:20:36;94678.63;;;7.16;56.46
20622;BME280;10470;42.670;23.354;2023-04-07T08:23:02;94676.41;;;7.27;56.21
20622;BME280;10470;42.670;23.354;2023-04-07T08:25:28;94666.00;;;7.80;55.80
20622;BME280;10470;42.670;23.354;2023-04-07T08:27:53;94666.31;;;7.70;55.51
20622;BME280;10470;42.670;23.354;2023-04-07T08:30:19;94671.31;;;7.71;55.32
20622;BME280;10470;42.670;23.354;2023-04-07T08:32:46;94660.84;;;7.57;55.16
20622;BME280;10470;42.670;23.354;2023-04-07T08:35:12;94673.16;;;7.32;56.05
20622;BME280;10470;42.670;23.354;2023-04-07T08:37:38;94661.63;;;7.57;55.59
20622;BME280;10470;42.670;23.354;2023-04-07T08:40:05;94668.59;;;7.71;55.51
20622;BME280;10470;42.670;23.354;2023-04-07T08:42:33;94665.88;;;7.71;55.64
20622;BME280;10470;42.670;23.354;2023-04-07T08:45:03;94666.59;;;7.46;55.73
20622;BME280;10470;42.670;23.354;2023-04-07T08:47:31;94664.78;;;7.56;56.15
20622;BME280;10470;42.670;23.354;2023-04-07T08:50:00;94654.09;;;8.03;55.69
20622;BME280;10470;42.670;23.354;2023-04-07T08:52:33;94664.53;;;7.21;55.90
20622;BME280;10470;42.670;23.354;2023-04-07T08:54:59;94662.56;;;7.09;56.14
20622;BME280;10470;42.670;23.354;2023-04-07T08:57:30;94655.38;;;7.73;55.88
20622;BME280;10470;42.670;23.354;2023-04-07T08:59:58;94662.25;;;8.42;55.24
20622;BME280;10470;42.670;23.354;2023-04-07T09:02:31;94665.69;;;8.55;54.50
20622;BME280;10470;42.670;23.354;2023-04-07T09:04:57;94669.06;;;8.59;54.07
20622;BME280;10470;42.670;23.354;2023-04-07T09:07:22;94671.47;;;8.44;53.10
20622;BME280;10470;42.670;23.354;2023-04-07T09:09:48;94665.59;;;7.95;52.97
20622;BME280;10470;42.670;23.354;2023-04-07T09:12:13;94661.69;;;8.21;52.89
20622;BME280;10470;42.670;23.354;2023-04-07T09:14:38;94662.13;;;8.45;53.08
20622;BME280;10470;42.670;23.354;2023-04-07T09:17:04;94657.97;;;8.66;52.82
20622;BME280;10470;42.670;23.354;2023-04-07T09:19:30;94656.22;;;8.72;52.71
20622;BME280;10470;42.670;23.354;2023-04-07T09:21:56;94659.47;;;9.15;51.81
20622;BME280;10470;42.670;23.354;2023-04-07T09:24:22;94662.28;;;8.77;52.04
20622;BME280;10470;42.670;23.354;2023-04-07T09:26:48;94654.75;;;8.46;52.80
20622;BME280;10470;42.670;23.354;2023-04-07T09:29:19;94662.03;;;8.23;53.05
20622;BME280;10470;42.670;23.354;2023-04-07T09:31:46;94665.69;;;8.68;52.93
20622;BME280;10470;42.670;23.354;2023-04-07T09:36:55;94671.31;;;8.73;52.86
20622;BME280;10470;42.670;23.354;2023-04-07T09:39:21;94670.91;;;8.62;52.44
20622;BME280;10470;42.670;23.354;2023-04-07T09:41:47;94661.47;;;8.54;52.15
20622;BME280;10470;42.670;23.354;2023-04-07T09:44:13;94673.50;;;9.13;52.33
20622;BME280;10470;42.670;23.354;2023-04-07T09:46:54;94672.84;;;8.74;52.44
20622;BME280;10470;42.670;23.354;2023-04-07T09:49:21;94674.59;;;9.16;52.25
20622;BME280;10470;42.670;23.354;2023-04-07T09:52:02;94684.88;;;8.86;52.67
20622;BME280;10470;42.670;23.354;2023-04-07T09:54:36;94682.84;;;8.26;52.31
20622;BME280;10470;42.670;23.354;2023-04-07T09:57:04;94685.69;;;8.36;53.40
20622;BME280;10470;42.670;23.354;2023-04-07T09:59:32;94674.31;;;8.53;53.84
20622;BME280;10470;42.670;23.354;2023-04-07T10:01:58;94675.75;;;9.15;52.99
20622;BME280;10470;42.670;23.354;2023-04-07T10:04:24;94682.19;;;9.43;52.78
20622;BME280;10470;42.670;23.354;2023-04-07T10:06:51;94676.03;;;9.74;52.76
20622;BME280;10470;42.670;23.354;2023-04-07T10:09:19;94684.44;;;9.23;52.28
20622;BME280;10470;42.670;23.354;2023-04-07T10:11:44;94671.97;;;9.12;52.36
20622;BME280;10470;42.670;23.354;2023-04-07T10:14:11;94669.22;;;9.25;51.87
20622;BME280;10470;42.670;23.354;2023-04-07T10:16:37;94684.00;;;8.89;52.17
20622;BME280;10470;42.670;23.354;2023-04-07T10:19:03;94676.66;;;8.77;52.10
20622;BME280;10470;42.670;23.354;2023-04-07T10:21:33;94659.66;;;9.21;52.35
20622;BME280;10470;42.670;23.354;2023-04-07T10:24:15;94669.91;;;9.38;52.46
20622;BME280;10470;42.670;23.354;2023-04-07T10:26:52;94680.31;;;8.83;52.54
20622;BME280;10470;42.670;23.354;2023-04-07T10:29:19;94676.63;;;8.90;53.02
20622;BME280;10470;42.670;23.354;2023-04-07T10:31:46;94670.13;;;9.09;52.83
20622;BME280;10470;42.670;23.354;2023-04-07T10:34:12;94674.91;;;8.70;52.78
20622;BME280;10470;42.670;23.354;2023-04-07T10:37:10;94686.69;;;9.02;53.07
20622;BME280;10470;42.670;23.354;2023-04-07T10:39:42;94688.72;;;9.11;52.62
20622;BME280;10470;42.670;23.354;2023-04-07T10:45:10;94683.53;;;9.04;52.72
20622;BME280;10470;42.670;23.354;2023-04-07T10:48:09;94686.22;;;9.16;52.76
20622;BME280;10470;42.670;23.354;2023-04-07T10:50:35;94687.94;;;8.75;54.73
20622;BME280;10470;42.670;23.354;2023-04-07T10:53:07;94680.53;;;8.76;56.74
20622;BME280;10470;42.670;23.354;2023-04-07T10:58:23;94682.22;;;9.08;56.68
20622;BME280;10470;42.670;23.354;2023-04-07T11:03:55;94660.66;;;9.14;56.44
20622;BME280;10470;42.670;23.354;2023-04-07T11:06:21;94687.53;;;9.12;55.68
20622;BME280;10470;42.670;23.354;2023-04-07T11:08:47;94691.22;;;8.58;55.82
20622;BME280;10470;42.670;23.354;2023-04-07T11:11:20;94688.41;;;9.09;56.16
20622;BME280;10470;42.670;23.354;2023-04-07T11:13:58;94699.88;;;9.26;55.85
20622;BME280;10470;42.670;23.354;2023-04-07T11:16:42;94692.34;;;9.30;55.96
20622;BME280;10470;42.670;23.354;2023-04-07T11:19:09;94690.63;;;9.23;56.63
20622;BME280;10470;42.670;23.354;2023-04-07T11:21:35;94687.75;;;9.39;57.06
20622;BME280;10470;42.670;23.354;2023-04-07T11:24:00;94701.06;;;9.25;56.79
20622;BME280;10470;42.670;23.354;2023-04-07T11:26:26;94691.44;;;9.11;57.77
20622;BME280;10470;42.670;23.354;2023-04-07T11:28:53;94701.66;;;9.63;56.98
20622;BME280;10470;42.670;23.354;2023-04-07T11:31:27;94693.31;;;9.01;57.34
20622;BME280;10470;42.670;23.354;2023-04-07T11:36:26;94708.91;;;9.23;56.36
20622;BME280;10470;42.670;23.354;2023-04-07T11:38:52;94710.66;;;9.73;56.69
20622;BME280;10470;42.670;23.354;2023-04-07T11:41:18;94700.06;;;8.96;57.25
20622;BME280;10470;42.670;23.354;2023-04-07T11:43:43;94704.44;;;9.29;57.20
20622;BME280;10470;42.670;23.354;2023-04-07T11:46:16;94704.53;;;9.25;57.63
20622;BME280;10470;42.670;23.354;2023-04-07T11:48:44;94698.88;;;8.98;57.94
20622;BME280;10470;42.670;23.354;2023-04-07T11:51:36;94695.41;;;8.84;58.77
20622;BME280;10470;42.670;23.354;2023-04-07T11:54:01;94695.25;;;9.13;58.29
20622;BME280;10470;42.670;23.354;2023-04-07T11:56:27;94694.03;;;9.14;58.25
20622;BME280;10470;42.670;23.354;2023-04-07T11:58:55;94697.03;;;9.95;56.93
20622;BME280;10470;42.670;23.354;2023-04-07T12:01:21;94699.38;;;9.84;57.06
20622;BME280;10470;42.670;23.354;2023-04-07T12:04:00;94704.59;;;10.54;57.02
20622;BME280;10470;42.670;23.354;2023-04-07T12:06:30;94699.13;;;10.54;55.43
20622;BME280;10470;42.670;23.354;2023-04-07T12:09:00;94698.78;;;11.01;55.63
20622;BME280;10470;42.670;23.354;2023-04-07T12:11:26;94707.75;;;11.66;54.83
20622;BME280;10470;42.670;23.354;2023-04-07T12:13:52;94703.22;;;11.35;53.45
20622;BME280;10470;42.670;23.354;2023-04-07T12:16:19;94704.59;;;10.63;54.20
20622;BME280;10470;42.670;23.354;2023-04-07T12:18:45;94710.13;;;11.00;54.75
20622;BME280;10470;42.670;23.354;2023-04-07T12:21:11;94705.13;;;10.80;54.41
20622;BME280;10470;42.670;23.354;2023-04-07T12:23:37;94709.72;;;11.75;52.91
20622;BME280;10470;42.670;23.354;2023-04-07T12:26:02;94708.78;;;12.90;50.83
20622;BME280;10470;42.670;23.354;2023-04-07T12:28:28;94707.59;;;11.33;52.16
20622;BME280;10470;42.670;23.354;2023-04-07T12:30:54;94709.66;;;10.83;53.96
20622;BME280;10470;42.670;23.354;2023-04-07T12:33:20;94706.94;;;10.11;55.48
20622;BME280;10470;42.670;23.354;2023-04-07T12:35:46;94702.47;;;10.26;54.37
20622;BME280;10470;42.670;23.354;2023-04-07T12:38:11;94706.03;;;10.86;54.37
20622;BME280;10470;42.670;23.354;2023-04-07T12:40:37;94700.47;;;11.08;54.16
20622;BME280;10470;42.670;23.354;2023-04-07T12:43:03;94694.53;;;10.10;54.79
20622;BME280;10470;42.670;23.354;2023-04-07T12:45:29;94701.75;;;10.66;55.74
20622;BME280;10470;42.670;23.354;2023-04-07T12:47:55;94692.34;;;10.27;56.36
20622;BME280;10470;42.670;23.354;2023-04-07T12:50:21;94702.91;;;11.06;54.80
20622;BME280;10470;42.670;23.354;2023-04-07T12:52:47;94699.22;;;10.90;54.25
20622;BME280;10470;42.670;23.354;2023-04-07T12:55:12;94705.00;;;11.02;54.47
20622;BME280;10470;42.670;23.354;2023-04-07T12:57:38;94703.66;;;11.06;54.28
20622;BME280;10470;42.670;23.354;2023-04-07T13:00:04;94700.22;;;9.94;55.55
20622;BME280;10470;42.670;23.354;2023-04-07T13:02:30;94711.84;;;10.25;55.60
20622;BME280;10470;42.670;23.354;2023-04-07T13:04:55;94708.75;;;9.83;55.95
20622;BME280;10470;42.670;23.354;2023-04-07T13:07:21;94706.81;;;10.15;55.95
20622;BME280;10470;42.670;23.354;2023-04-07T13:09:46;94712.28;;;10.55;55.44
20622;BME280;10470;42.670;23.354;2023-04-07T13:12:12;94712.47;;;10.61;55.37
20622;BME280;10470;42.670;23.354;2023-04-07T13:14:39;94714.09;;;10.99;55.46
20622;BME280;10470;42.670;23.354;2023-04-07T13:17:06;94708.66;;;10.27;55.53